sensor_id;sensor_type;location;lat;lon;timestamp;P1;durP1;ratioP1;P2;durP2;ratioP2
26516;SDS011;14190;51.342;6.338;2023-05-07T00:02:27;23.62;;;17.60;;
26516;SDS011;14190;51.342;6.338;2023-05-07T00:04:54;31.15;;;22.45;;
26516;SDS011;14190;51.342;6.338;2023-05-07T00:07:22;25.80;;;19.67;;
26516;SDS011;14190;51.342;6.338;2023-05-07T00:09:49;24.40;;;19.67;;
26516;SDS011;14190;51.342;6.338;2023-05-07T00:12:17;22.80;;;20.30;;
26516;SDS011;14190;51.342;6.338;2023-05-07T00:14:44;24.47;;;20.05;;
26516;SDS011;14190;51.342;6.338;2023-05-07T00:17:11;26.97;;;20.23;;
26516;SDS011;14190;51.342;6.338;2023-05-07T00:19:39;29.12;;;23.77;;
26516;SDS011;14190;51.342;6.338;2023-05-07T00:22:06;24.60;;;21.70;;
26516;SDS011;14190;51.342;6.338;2023-05-07T00:24:34;24.40;;;21.40;;
26516;SDS011;14190;51.342;6.338;2023-05-07T00:27:01;22.82;;;20.48;;
26516;SDS011;14190;51.342;6.338;2023-05-07T00:29:29;26.42;;;20.68;;
26516;SDS011;14190;51.342;6.338;2023-05-07T00:31:56;24.07;;;19.65;;
26516;SDS011;14190;51.342;6.338;2023-05-07T00:34:23;23.75;;;19.42;;
26516;SDS011;14190;51.342;6.338;2023-05-07T00:36:51;26.82;;;20.70;;
26516;SDS011;14190;51.342;6.338;2023-05-07T00:39:18;24.60;;;19.17;;
26516;SDS011;14190;51.342;6.338;2023-05-07T00:41:46;23.50;;;20.27;;
26516;SDS011;14190;51.342;6.338;2023-05-07T00:44:13;23.70;;;20.72;;
26516;SDS011;14190;51.342;6.338;2023-05-07T00:46:41;20.02;;;17.90;;
26516;SDS011;14190;51.342;6.338;2023-05-07T00:49:08;23.38;;;20.85;;
26516;SDS011;14190;51.342;6.338;2023-05-07T00:51:35;26.73;;;19.73;;
26516;SDS011;14190;51.342;6.338;2023-05-07T00:54:03;25.85;;;22.05;;
26516;SDS011;14190;51.342;6.338;2023-05-07T00:56:31;24.70;;;20.77;;
26516;SDS011;14190;51.342;6.338;2023-05-07T00:58:58;23.98;;;20.52;;
26516;SDS011;14190;51.342;6.338;2023-05-07T01:01:27;25.68;;;20.50;;
26516;SDS011;14190;51.342;6.338;2023-05-07T01:03:54;21.62;;;19.37;;
26516;SDS011;14190;51.342;6.338;2023-05-07T01:06:23;21.27;;;18.20;;
26516;SDS011;14190;51.342;6.338;2023-05-07T01:08:51;25.05;;;19.80;;
26516;SDS011;14190;51.342;6.338;2023-05-07T01:11:19;25.08;;;20.02;;
26516;SDS011;14190;51.342;6.338;2023-05-07T01:13:47;27.15;;;21.25;;
26516;SDS011;14190;51.342;6.338;2023-05-07T01:16:16;22.40;;;20.08;;
26516;SDS011;14190;51.342;6.338;2023-05-07T01:18:44;20.40;;;18.15;;
26516;SDS011;14190;51.342;6.338;2023-05-07T01:21:13;19.70;;;17.30;;
26516;SDS011;14190;51.342;6.338;2023-05-07T01:23:42;24.80;;;20.77;;
26516;SDS011;14190;51.342;6.338;2023-05-07T01:26:09;26.95;;;19.37;;
26516;SDS011;14190;51.342;6.338;2023-05-07T01:28:37;23.60;;;21.07;;
26516;SDS011;14190;51.342;6.338;2023-05-07T01:31:04;23.40;;;18.65;;
26516;SDS011;14190;51.342;6.338;2023-05-07T01:33:33;19.50;;;17.25;;
26516;SDS011;14190;51.342;6.338;2023-05-07T01:36:02;21.20;;;18.37;;
26516;SDS011;14190;51.342;6.338;2023-05-07T01:38:31;23.77;;;18.30;;
26516;SDS011;14190;51.342;6.338;2023-05-07T01:40:59;23.22;;;18.32;;
26516;SDS011;14190;51.342;6.338;2023-05-07T01:43:27;24.40;;;19.42;;
26516;SDS011;14190;51.342;6.338;2023-05-07T01:45:55;23.62;;;19.75;;
26516;SDS011;14190;51.342;6.338;2023-05-07T01:48:22;24.27;;;20.17;;
26516;SDS011;14190;51.342;6.338;2023-05-07T01:50:51;21.40;;;19.15;;
26516;SDS011;14190;51.342;6.338;2023-05-07T01:53:19;28.98;;;22.17;;
26516;SDS011;14190;51.342;6.338;2023-05-07T01:55:46;23.90;;;20.45;;
26516;SDS011;14190;51.342;6.338;2023-05-07T01:58:14;22.30;;;19.77;;
26516;SDS011;14190;51.342;6.338;2023-05-07T02:00:42;23.12;;;20.20;;
26516;SDS011;14190;51.342;6.338;2023-05-07T02:03:09;21.82;;;19.23;;
26516;SDS011;14190;51.342;6.338;2023-05-07T02:05:39;26.80;;;20.33;;
26516;SDS011;14190;51.342;6.338;2023-05-07T02:08:17;29.87;;;23.18;;
26516;SDS011;14190;51.342;6.338;2023-05-07T02:10:44;28.55;;;22.40;;
26516;SDS011;14190;51.342;6.338;2023-05-07T02:13:12;25.23;;;20.95;;
26516;SDS011;14190;51.342;6.338;2023-05-07T02:15:39;28.20;;;21.87;;
26516;SDS011;14190;51.342;6.338;2023-05-07T02:18:07;22.25;;;18.65;;
26516;SDS011;14190;51.342;6.338;2023-05-07T02:20:35;22.58;;;19.73;;
26516;SDS011;14190;51.342;6.338;2023-05-07T02:23:03;22.07;;;19.73;;
26516;SDS011;14190;51.342;6.338;2023-05-07T02:25:30;25.12;;;21.70;;
26516;SDS011;14190;51.342;6.338;2023-05-07T02:27:58;21.77;;;19.55;;
26516;SDS011;14190;51.342;6.338;2023-05-07T02:30:27;19.98;;;17.80;;
26516;SDS011;14190;51.342;6.338;2023-05-07T02:32:55;25.30;;;19.57;;
26516;SDS011;14190;51.342;6.338;2023-05-07T02:35:24;24.20;;;21.60;;
26516;SDS011;14190;51.342;6.338;2023-05-07T02:37:51;25.97;;;20.00;;
26516;SDS011;14190;51.342;6.338;2023-05-07T02:40:19;22.60;;;19.82;;
26516;SDS011;14190;51.342;6.338;2023-05-07T02:42:47;26.48;;;20.32;;
26516;SDS011;14190;51.342;6.338;2023-05-07T02:45:14;27.58;;;20.05;;
26516;SDS011;14190;51.342;6.338;2023-05-07T02:47:42;26.65;;;18.35;;
26516;SDS011;14190;51.342;6.338;2023-05-07T02:50:10;27.45;;;22.10;;
26516;SDS011;14190;51.342;6.338;2023-05-07T02:52:38;24.20;;;19.07;;
26516;SDS011;14190;51.342;6.338;2023-05-07T02:55:06;20.90;;;17.87;;
26516;SDS011;14190;51.342;6.338;2023-05-07T02:57:33;22.40;;;16.87;;
26516;SDS011;14190;51.342;6.338;2023-05-07T03:00:09;19.27;;;17.35;;
26516;SDS011;14190;51.342;6.338;2023-05-07T03:02:30;28.87;;;20.77;;
26516;SDS011;14190;51.342;6.338;2023-05-07T03:04:57;26.02;;;18.45;;
26516;SDS011;14190;51.342;6.338;2023-05-07T03:07:25;23.80;;;19.17;;
26516;SDS011;14190;51.342;6.338;2023-05-07T03:09:52;19.50;;;17.40;;
26516;SDS011;14190;51.342;6.338;2023-05-07T03:12:20;22.90;;;18.15;;
26516;SDS011;14190;51.342;6.338;2023-05-07T03:14:47;19.70;;;16.10;;
26516;SDS011;14190;51.342;6.338;2023-05-07T03:17:15;21.48;;;18.23;;
26516;SDS011;14190;51.342;6.338;2023-05-07T03:19:43;26.35;;;21.45;;
26516;SDS011;14190;51.342;6.338;2023-05-07T03:22:10;17.75;;;15.90;;
26516;SDS011;14190;51.342;6.338;2023-05-07T03:24:38;20.88;;;17.10;;
26516;SDS011;14190;51.342;6.338;2023-05-07T03:27:05;18.95;;;16.80;;
26516;SDS011;14190;51.342;6.338;2023-05-07T03:29:32;23.83;;;17.37;;
26516;SDS011;14190;51.342;6.338;2023-05-07T03:32:00;20.57;;;17.30;;
26516;SDS011;14190;51.342;6.338;2023-05-07T03:34:27;20.02;;;17.10;;
26516;SDS011;14190;51.342;6.338;2023-05-07T03:36:55;23.20;;;19.23;;
26516;SDS011;14190;51.342;6.338;2023-05-07T03:39:22;28.25;;;19.62;;
26516;SDS011;14190;51.342;6.338;2023-05-07T03:41:50;20.32;;;18.20;;
26516;SDS011;14190;51.342;6.338;2023-05-07T03:44:17;22.98;;;18.80;;
26516;SDS011;14190;51.342;6.338;2023-05-07T03:46:45;21.95;;;18.77;;
26516;SDS011;14190;51.342;6.338;2023-05-07T03:49:12;20.52;;;17.35;;
26516;SDS011;14190;51.342;6.338;2023-05-07T03:51:40;18.70;;;16.75;;
26516;SDS011;14190;51.342;6.338;2023-05-07T03:54:07;25.00;;;19.40;;
26516;SDS011;14190;51.342;6.338;2023-05-07T03:56:35;27.25;;;17.23;;
26516;SDS011;14190;51.342;6.338;2023-05-07T03:59:03;21.57;;;17.23;;
26516;SDS011;14190;51.342;6.338;2023-05-07T04:01:30;21.57;;;18.23;;
26516;SDS011;14190;51.342;6.338;2023-05-07T04:03:59;28.30;;;20.88;;
26516;SDS011;14190;51.342;6.338;2023-05-07T04:06:27;22.50;;;17.23;;
26516;SDS011;14190;51.342;6.338;2023-05-07T04:08:55;23.32;;;18.70;;
26516;SDS011;14190;51.342;6.338;2023-05-07T04:11:22;19.70;;;17.65;;
26516;SDS011;14190;51.342;6.338;2023-05-07T04:13:50;26.12;;;17.98;;
26516;SDS011;14190;51.342;6.338;2023-05-07T04:16:19;23.90;;;17.12;;
26516;SDS011;14190;51.342;6.338;2023-05-07T04:18:46;21.15;;;16.17;;
26516;SDS011;14190;51.342;6.338;2023-05-07T04:21:16;21.45;;;15.75;;
26516;SDS011;14190;51.342;6.338;2023-05-07T04:23:44;24.25;;;17.77;;
26516;SDS011;14190;51.342;6.338;2023-05-07T04:26:12;19.05;;;15.43;;
26516;SDS011;14190;51.342;6.338;2023-05-07T04:28:41;19.87;;;17.50;;
26516;SDS011;14190;51.342;6.338;2023-05-07T04:31:09;23.42;;;17.52;;
26516;SDS011;14190;51.342;6.338;2023-05-07T04:33:37;19.52;;;17.17;;
26516;SDS011;14190;51.342;6.338;2023-05-07T04:36:05;24.45;;;17.90;;
26516;SDS011;14190;51.342;6.338;2023-05-07T04:38:35;19.15;;;16.02;;
26516;SDS011;14190;51.342;6.338;2023-05-07T04:41:03;20.40;;;18.23;;
26516;SDS011;14190;51.342;6.338;2023-05-07T04:43:32;23.30;;;15.80;;
26516;SDS011;14190;51.342;6.338;2023-05-07T04:45:59;20.70;;;15.35;;
26516;SDS011;14190;51.342;6.338;2023-05-07T04:48:28;21.62;;;15.50;;
26516;SDS011;14190;51.342;6.338;2023-05-07T04:50:57;22.62;;;17.12;;
26516;SDS011;14190;51.342;6.338;2023-05-07T04:53:24;18.15;;;14.03;;
26516;SDS011;14190;51.342;6.338;2023-05-07T04:55:55;14.83;;;12.95;;
26516;SDS011;14190;51.342;6.338;2023-05-07T04:58:27;16.85;;;12.75;;
26516;SDS011;14190;51.342;6.338;2023-05-07T05:00:57;25.15;;;14.40;;
26516;SDS011;14190;51.342;6.338;2023-05-07T05:03:24;15.65;;;13.48;;
26516;SDS011;14190;51.342;6.338;2023-05-07T05:05:52;18.12;;;12.98;;
26516;SDS011;14190;51.342;6.338;2023-05-07T05:08:20;18.92;;;13.05;;
26516;SDS011;14190;51.342;6.338;2023-05-07T05:10:48;12.85;;;11.53;;
26516;SDS011;14190;51.342;6.338;2023-05-07T05:13:16;25.55;;;16.23;;
26516;SDS011;14190;51.342;6.338;2023-05-07T05:15:44;15.95;;;13.38;;
26516;SDS011;14190;51.342;6.338;2023-05-07T05:18:12;21.05;;;14.65;;
26516;SDS011;14190;51.342;6.338;2023-05-07T05:20:39;20.23;;;14.68;;
26516;SDS011;14190;51.342;6.338;2023-05-07T05:23:07;26.93;;;16.45;;
26516;SDS011;14190;51.342;6.338;2023-05-07T05:25:35;17.82;;;15.58;;
26516;SDS011;14190;51.342;6.338;2023-05-07T05:28:03;22.05;;;15.88;;
26516;SDS011;14190;51.342;6.338;2023-05-07T05:30:33;21.90;;;13.93;;
26516;SDS011;14190;51.342;6.338;2023-05-07T05:33:01;23.27;;;13.90;;
26516;SDS011;14190;51.342;6.338;2023-05-07T05:35:29;17.00;;;12.80;;
26516;SDS011;14190;51.342;6.338;2023-05-07T05:37:57;15.72;;;11.55;;
26516;SDS011;14190;51.342;6.338;2023-05-07T05:40:25;14.25;;;11.65;;
26516;SDS011;14190;51.342;6.338;2023-05-07T05:42:53;14.28;;;10.75;;
26516;SDS011;14190;51.342;6.338;2023-05-07T05:45:21;10.13;;;9.08;;
26516;SDS011;14190;51.342;6.338;2023-05-07T05:47:50;12.20;;;10.58;;
26516;SDS011;14190;51.342;6.338;2023-05-07T05:50:17;12.30;;;9.88;;
26516;SDS011;14190;51.342;6.338;2023-05-07T05:52:45;16.67;;;9.55;;
26516;SDS011;14190;51.342;6.338;2023-05-07T05:55:14;12.33;;;9.18;;
26516;SDS011;14190;51.342;6.338;2023-05-07T05:57:41;12.98;;;9.53;;
26516;SDS011;14190;51.342;6.338;2023-05-07T06:00:09;13.45;;;8.63;;
26516;SDS011;14190;51.342;6.338;2023-05-07T06:02:38;11.43;;;9.58;;
26516;SDS011;14190;51.342;6.338;2023-05-07T06:05:06;12.23;;;9.18;;
26516;SDS011;14190;51.342;6.338;2023-05-07T06:07:34;12.03;;;10.08;;
26516;SDS011;14190;51.342;6.338;2023-05-07T06:10:02;10.50;;;9.08;;
26516;SDS011;14190;51.342;6.338;2023-05-07T06:12:29;14.05;;;9.45;;
26516;SDS011;14190;51.342;6.338;2023-05-07T06:14:57;12.37;;;8.68;;
26516;SDS011;14190;51.342;6.338;2023-05-07T06:17:24;9.83;;;8.80;;
26516;SDS011;14190;51.342;6.338;2023-05-07T06:19:52;9.58;;;8.55;;
26516;SDS011;14190;51.342;6.338;2023-05-07T06:22:19;14.47;;;8.53;;
26516;SDS011;14190;51.342;6.338;2023-05-07T06:24:47;9.48;;;8.58;;
26516;SDS011;14190;51.342;6.338;2023-05-07T06:27:14;11.28;;;7.87;;
26516;SDS011;14190;51.342;6.338;2023-05-07T06:29:42;11.48;;;8.40;;
26516;SDS011;14190;51.342;6.338;2023-05-07T06:32:12;11.28;;;7.75;;
26516;SDS011;14190;51.342;6.338;2023-05-07T06:34:40;14.58;;;8.48;;
26516;SDS011;14190;51.342;6.338;2023-05-07T06:37:08;11.53;;;8.88;;
26516;SDS011;14190;51.342;6.338;2023-05-07T06:39:49;9.40;;;7.50;;
26516;SDS011;14190;51.342;6.338;2023-05-07T06:42:17;9.13;;;8.10;;
26516;SDS011;14190;51.342;6.338;2023-05-07T06:44:46;8.25;;;7.22;;
26516;SDS011;14190;51.342;6.338;2023-05-07T06:47:15;13.93;;;8.23;;
26516;SDS011;14190;51.342;6.338;2023-05-07T06:49:44;8.23;;;7.42;;
26516;SDS011;14190;51.342;6.338;2023-05-07T06:52:13;12.85;;;7.80;;
26516;SDS011;14190;51.342;6.338;2023-05-07T06:54:41;9.63;;;8.20;;
26516;SDS011;14190;51.342;6.338;2023-05-07T06:57:10;9.28;;;7.67;;
26516;SDS011;14190;51.342;6.338;2023-05-07T06:59:37;9.88;;;7.35;;
26516;SDS011;14190;51.342;6.338;2023-05-07T07:02:04;8.33;;;6.92;;
26516;SDS011;14190;51.342;6.338;2023-05-07T07:04:32;11.63;;;7.40;;
26516;SDS011;14190;51.342;6.338;2023-05-07T07:07:01;12.25;;;8.85;;
26516;SDS011;14190;51.342;6.338;2023-05-07T07:09:28;10.40;;;8.00;;
26516;SDS011;14190;51.342;6.338;2023-05-07T07:11:56;8.30;;;7.35;;
26516;SDS011;14190;51.342;6.338;2023-05-07T07:14:24;12.13;;;7.83;;
26516;SDS011;14190;51.342;6.338;2023-05-07T07:16:52;11.60;;;7.60;;
26516;SDS011;14190;51.342;6.338;2023-05-07T07:19:20;10.05;;;7.55;;
26516;SDS011;14190;51.342;6.338;2023-05-07T07:21:49;9.00;;;7.75;;
26516;SDS011;14190;51.342;6.338;2023-05-07T07:24:16;8.80;;;6.78;;
26516;SDS011;14190;51.342;6.338;2023-05-07T07:29:13;13.03;;;6.15;;
26516;SDS011;14190;51.342;6.338;2023-05-07T07:31:42;10.13;;;6.87;;
26516;SDS011;14190;51.342;6.338;2023-05-07T07:34:10;10.53;;;6.15;;
26516;SDS011;14190;51.342;6.338;2023-05-07T07:36:37;12.82;;;6.87;;
26516;SDS011;14190;51.342;6.338;2023-05-07T07:39:05;8.63;;;6.78;;
26516;SDS011;14190;51.342;6.338;2023-05-07T07:41:33;8.70;;;6.78;;
26516;SDS011;14190;51.342;6.338;2023-05-07T07:44:02;7.85;;;6.00;;
26516;SDS011;14190;51.342;6.338;2023-05-07T07:46:30;9.00;;;6.15;;
26516;SDS011;14190;51.342;6.338;2023-05-07T07:48:57;8.63;;;5.80;;
26516;SDS011;14190;51.342;6.338;2023-05-07T07:51:26;12.15;;;5.97;;
26516;SDS011;14190;51.342;6.338;2023-05-07T07:53:55;9.28;;;7.05;;
26516;SDS011;14190;51.342;6.338;2023-05-07T07:56:24;7.42;;;5.75;;
26516;SDS011;14190;51.342;6.338;2023-05-07T07:58:52;8.58;;;6.85;;
26516;SDS011;14190;51.342;6.338;2023-05-07T08:01:19;12.07;;;6.95;;
26516;SDS011;14190;51.342;6.338;2023-05-07T08:03:47;8.80;;;6.42;;
26516;SDS011;14190;51.342;6.338;2023-05-07T08:06:15;10.03;;;6.28;;
26516;SDS011;14190;51.342;6.338;2023-05-07T08:08:43;10.55;;;7.47;;
26516;SDS011;14190;51.342;6.338;2023-05-07T08:11:10;12.23;;;7.05;;
26516;SDS011;14190;51.342;6.338;2023-05-07T08:13:38;12.65;;;6.90;;
26516;SDS011;14190;51.342;6.338;2023-05-07T08:16:07;10.10;;;6.95;;
26516;SDS011;14190;51.342;6.338;2023-05-07T08:18:34;7.95;;;6.37;;
26516;SDS011;14190;51.342;6.338;2023-05-07T08:21:02;10.82;;;7.08;;
26516;SDS011;14190;51.342;6.338;2023-05-07T08:23:30;8.75;;;6.15;;
26516;SDS011;14190;51.342;6.338;2023-05-07T08:25:58;9.03;;;5.65;;
26516;SDS011;14190;51.342;6.338;2023-05-07T08:28:25;10.28;;;5.55;;
26516;SDS011;14190;51.342;6.338;2023-05-07T08:30:53;7.85;;;6.53;;
26516;SDS011;14190;51.342;6.338;2023-05-07T08:33:20;10.43;;;5.83;;
26516;SDS011;14190;51.342;6.338;2023-05-07T08:35:48;6.92;;;6.05;;
26516;SDS011;14190;51.342;6.338;2023-05-07T08:38:15;12.98;;;6.17;;
26516;SDS011;14190;51.342;6.338;2023-05-07T08:40:42;10.03;;;7.28;;
26516;SDS011;14190;51.342;6.338;2023-05-07T08:43:14;9.58;;;5.92;;
26516;SDS011;14190;51.342;6.338;2023-05-07T08:45:42;7.47;;;5.60;;
26516;SDS011;14190;51.342;6.338;2023-05-07T08:48:17;10.58;;;5.53;;
26516;SDS011;14190;51.342;6.338;2023-05-07T08:53:09;12.37;;;5.45;;
26516;SDS011;14190;51.342;6.338;2023-05-07T08:55:37;6.03;;;5.42;;
26516;SDS011;14190;51.342;6.338;2023-05-07T08:58:05;6.47;;;5.55;;
26516;SDS011;14190;51.342;6.338;2023-05-07T09:00:33;8.63;;;5.37;;
26516;SDS011;14190;51.342;6.338;2023-05-07T09:03:02;5.00;;;4.53;;
26516;SDS011;14190;51.342;6.338;2023-05-07T09:05:30;6.03;;;4.80;;
26516;SDS011;14190;51.342;6.338;2023-05-07T09:08:01;6.87;;;5.42;;
26516;SDS011;14190;51.342;6.338;2023-05-07T09:10:30;6.72;;;5.20;;
26516;SDS011;14190;51.342;6.338;2023-05-07T09:13:00;4.90;;;4.35;;
26516;SDS011;14190;51.342;6.338;2023-05-07T09:15:28;7.55;;;4.75;;
26516;SDS011;14190;51.342;6.338;2023-05-07T09:17:59;7.05;;;5.83;;
26516;SDS011;14190;51.342;6.338;2023-05-07T09:20:24;8.30;;;4.70;;
26516;SDS011;14190;51.342;6.338;2023-05-07T09:22:54;7.95;;;4.92;;
26516;SDS011;14190;51.342;6.338;2023-05-07T09:25:29;7.65;;;4.83;;
26516;SDS011;14190;51.342;6.338;2023-05-07T09:27:59;8.45;;;5.40;;
26516;SDS011;14190;51.342;6.338;2023-05-07T09:30:27;5.78;;;4.83;;
26516;SDS011;14190;51.342;6.338;2023-05-07T09:33:01;4.37;;;3.62;;
26516;SDS011;14190;51.342;6.338;2023-05-07T09:35:29;5.50;;;4.28;;
26516;SDS011;14190;51.342;6.338;2023-05-07T09:37:59;5.87;;;3.95;;
26516;SDS011;14190;51.342;6.338;2023-05-07T09:40:27;7.05;;;3.65;;
26516;SDS011;14190;51.342;6.338;2023-05-07T09:42:56;6.53;;;4.33;;
26516;SDS011;14190;51.342;6.338;2023-05-07T09:45:30;4.80;;;4.30;;
26516;SDS011;14190;51.342;6.338;2023-05-07T09:47:56;7.33;;;3.95;;
26516;SDS011;14190;51.342;6.338;2023-05-07T09:50:32;4.33;;;2.98;;
26516;SDS011;14190;51.342;6.338;2023-05-07T09:55:22;3.98;;;3.58;;
26516;SDS011;14190;51.342;6.338;2023-05-07T09:57:51;9.50;;;3.53;;
26516;SDS011;14190;51.342;6.338;2023-05-07T10:00:20;4.87;;;2.70;;
26516;SDS011;14190;51.342;6.338;2023-05-07T10:02:51;7.28;;;3.60;;
26516;SDS011;14190;51.342;6.338;2023-05-07T10:05:23;5.15;;;2.87;;
26516;SDS011;14190;51.342;6.338;2023-05-07T10:10:17;4.03;;;2.72;;
26516;SDS011;14190;51.342;6.338;2023-05-07T10:12:45;5.20;;;3.45;;
26516;SDS011;14190;51.342;6.338;2023-05-07T10:15:15;9.17;;;3.60;;
26516;SDS011;14190;51.342;6.338;2023-05-07T10:17:44;3.17;;;2.83;;
26516;SDS011;14190;51.342;6.338;2023-05-07T10:20:12;3.27;;;2.22;;
26516;SDS011;14190;51.342;6.338;2023-05-07T10:22:43;3.53;;;2.50;;
26516;SDS011;14190;51.342;6.338;2023-05-07T10:25:18;4.35;;;3.02;;
26516;SDS011;14190;51.342;6.338;2023-05-07T10:27:42;9.15;;;2.50;;
26516;SDS011;14190;51.342;6.338;2023-05-07T10:30:13;5.55;;;2.62;;
26516;SDS011;14190;51.342;6.338;2023-05-07T10:32:40;3.10;;;2.52;;
26516;SDS011;14190;51.342;6.338;2023-05-07T10:35:19;4.03;;;2.50;;
26516;SDS011;14190;51.342;6.338;2023-05-07T10:37:42;3.62;;;2.92;;
26516;SDS011;14190;51.342;6.338;2023-05-07T10:40:12;7.62;;;3.02;;
26516;SDS011;14190;51.342;6.338;2023-05-07T10:42:52;3.75;;;2.90;;
26516;SDS011;14190;51.342;6.338;2023-05-07T10:45:12;4.83;;;3.00;;
26516;SDS011;14190;51.342;6.338;2023-05-07T10:50:27;3.55;;;2.65;;
26516;SDS011;14190;51.342;6.338;2023-05-07T10:55:41;5.75;;;3.15;;
26516;SDS011;14190;51.342;6.338;2023-05-07T10:58:22;7.60;;;3.23;;
26516;SDS011;14190;51.342;6.338;2023-05-07T11:00:43;4.33;;;2.60;;
26516;SDS011;14190;51.342;6.338;2023-05-07T11:03:12;4.55;;;2.33;;
26516;SDS011;14190;51.342;6.338;2023-05-07T11:05:43;7.15;;;2.50;;
26516;SDS011;14190;51.342;6.338;2023-05-07T11:08:18;4.78;;;2.25;;
26516;SDS011;14190;51.342;6.338;2023-05-07T11:10:57;3.77;;;2.60;;
26516;SDS011;14190;51.342;6.338;2023-05-07T11:13:41;4.65;;;2.42;;
26516;SDS011;14190;51.342;6.338;2023-05-07T11:18:49;6.25;;;3.05;;
26516;SDS011;14190;51.342;6.338;2023-05-07T11:21:35;2.87;;;2.12;;
26516;SDS011;14190;51.342;6.338;2023-05-07T11:24:14;3.77;;;2.30;;
26516;SDS011;14190;51.342;6.338;2023-05-07T11:26:46;7.37;;;2.35;;
26516;SDS011;14190;51.342;6.338;2023-05-07T11:29:16;4.30;;;2.90;;
26516;SDS011;14190;51.342;6.338;2023-05-07T11:31:43;3.37;;;2.20;;
26516;SDS011;14190;51.342;6.338;2023-05-07T11:34:11;2.52;;;2.00;;
26516;SDS011;14190;51.342;6.338;2023-05-07T11:36:41;4.65;;;2.05;;
26516;SDS011;14190;51.342;6.338;2023-05-07T11:39:25;5.30;;;2.35;;
26516;SDS011;14190;51.342;6.338;2023-05-07T11:41:53;6.03;;;2.75;;
26516;SDS011;14190;51.342;6.338;2023-05-07T11:44:20;4.10;;;1.95;;
26516;SDS011;14190;51.342;6.338;2023-05-07T11:46:48;4.87;;;2.05;;
26516;SDS011;14190;51.342;6.338;2023-05-07T11:49:17;4.97;;;2.65;;
26516;SDS011;14190;51.342;6.338;2023-05-07T11:51:45;3.40;;;2.45;;
26516;SDS011;14190;51.342;6.338;2023-05-07T11:54:15;3.47;;;1.90;;
26516;SDS011;14190;51.342;6.338;2023-05-07T11:56:41;5.10;;;2.10;;
26516;SDS011;14190;51.342;6.338;2023-05-07T11:59:09;4.58;;;2.65;;
26516;SDS011;14190;51.342;6.338;2023-05-07T12:01:36;3.98;;;2.12;;
26516;SDS011;14190;51.342;6.338;2023-05-07T12:04:04;3.50;;;2.22;;
26516;SDS011;14190;51.342;6.338;2023-05-07T12:06:35;4.17;;;1.82;;
26516;SDS011;14190;51.342;6.338;2023-05-07T12:09:00;6.22;;;1.90;;
26516;SDS011;14190;51.342;6.338;2023-05-07T12:11:27;6.67;;;1.90;;
26516;SDS011;14190;51.342;6.338;2023-05-07T12:13:55;2.95;;;1.60;;
26516;SDS011;14190;51.342;6.338;2023-05-07T12:16:22;3.85;;;2.10;;
26516;SDS011;14190;51.342;6.338;2023-05-07T12:18:50;4.78;;;2.00;;
26516;SDS011;14190;51.342;6.338;2023-05-07T12:21:19;4.70;;;2.27;;
26516;SDS011;14190;51.342;6.338;2023-05-07T12:23:46;3.42;;;1.60;;
26516;SDS011;14190;51.342;6.338;2023-05-07T12:26:14;6.55;;;1.60;;
26516;SDS011;14190;51.342;6.338;2023-05-07T12:28:42;3.58;;;1.57;;
26516;SDS011;14190;51.342;6.338;2023-05-07T12:31:09;3.08;;;1.87;;
26516;SDS011;14190;51.342;6.338;2023-05-07T12:33:36;3.95;;;1.62;;
26516;SDS011;14190;51.342;6.338;2023-05-07T12:36:05;2.67;;;1.67;;
26516;SDS011;14190;51.342;6.338;2023-05-07T12:38:37;2.30;;;1.50;;
26516;SDS011;14190;51.342;6.338;2023-05-07T12:41:07;4.10;;;1.70;;
26516;SDS011;14190;51.342;6.338;2023-05-07T12:43:35;4.53;;;1.67;;
26516;SDS011;14190;51.342;6.338;2023-05-07T12:46:04;3.85;;;1.85;;
26516;SDS011;14190;51.342;6.338;2023-05-07T12:48:38;3.83;;;2.02;;
26516;SDS011;14190;51.342;6.338;2023-05-07T12:51:06;6.20;;;1.87;;
26516;SDS011;14190;51.342;6.338;2023-05-07T12:53:39;4.30;;;1.92;;
26516;SDS011;14190;51.342;6.338;2023-05-07T12:56:04;3.52;;;1.92;;
26516;SDS011;14190;51.342;6.338;2023-05-07T12:58:35;3.02;;;1.82;;
26516;SDS011;14190;51.342;6.338;2023-05-07T13:03:33;3.50;;;1.70;;
26516;SDS011;14190;51.342;6.338;2023-05-07T13:06:02;2.83;;;1.35;;
26516;SDS011;14190;51.342;6.338;2023-05-07T13:08:33;3.10;;;1.87;;
26516;SDS011;14190;51.342;6.338;2023-05-07T13:11:01;4.62;;;1.90;;
26516;SDS011;14190;51.342;6.338;2023-05-07T13:13:34;2.30;;;1.55;;
26516;SDS011;14190;51.342;6.338;2023-05-07T13:16:02;3.30;;;1.67;;
26516;SDS011;14190;51.342;6.338;2023-05-07T13:18:30;2.47;;;1.45;;
26516;SDS011;14190;51.342;6.338;2023-05-07T13:20:57;4.03;;;1.85;;
26516;SDS011;14190;51.342;6.338;2023-05-07T13:23:25;4.12;;;1.85;;
26516;SDS011;14190;51.342;6.338;2023-05-07T13:25:53;2.45;;;1.75;;
26516;SDS011;14190;51.342;6.338;2023-05-07T13:28:20;2.83;;;1.57;;
26516;SDS011;14190;51.342;6.338;2023-05-07T13:30:48;5.30;;;1.67;;
26516;SDS011;14190;51.342;6.338;2023-05-07T13:33:17;3.98;;;2.05;;
26516;SDS011;14190;51.342;6.338;2023-05-07T13:35:45;5.83;;;1.50;;
26516;SDS011;14190;51.342;6.338;2023-05-07T13:38:12;2.98;;;1.75;;
26516;SDS011;14190;51.342;6.338;2023-05-07T13:40:41;2.25;;;1.70;;
26516;SDS011;14190;51.342;6.338;2023-05-07T13:43:08;3.77;;;1.95;;
26516;SDS011;14190;51.342;6.338;2023-05-07T13:45:36;3.33;;;1.75;;
26516;SDS011;14190;51.342;6.338;2023-05-07T13:48:04;3.85;;;1.60;;
26516;SDS011;14190;51.342;6.338;2023-05-07T13:50:31;3.22;;;1.67;;
26516;SDS011;14190;51.342;6.338;2023-05-07T13:52:59;4.05;;;2.72;;
26516;SDS011;14190;51.342;6.338;2023-05-07T13:55:28;2.77;;;2.27;;
26516;SDS011;14190;51.342;6.338;2023-05-07T13:57:58;4.60;;;2.22;;
26516;SDS011;14190;51.342;6.338;2023-05-07T14:00:27;5.87;;;2.35;;
26516;SDS011;14190;51.342;6.338;2023-05-07T14:02:55;4.62;;;2.50;;
26516;SDS011;14190;51.342;6.338;2023-05-07T14:05:23;4.62;;;1.87;;
26516;SDS011;14190;51.342;6.338;2023-05-07T14:07:51;4.30;;;2.22;;
26516;SDS011;14190;51.342;6.338;2023-05-07T14:10:19;6.15;;;2.47;;
26516;SDS011;14190;51.342;6.338;2023-05-07T14:12:46;7.90;;;1.92;;
26516;SDS011;14190;51.342;6.338;2023-05-07T14:15:14;4.25;;;2.42;;
26516;SDS011;14190;51.342;6.338;2023-05-07T14:17:42;3.85;;;2.80;;
26516;SDS011;14190;51.342;6.338;2023-05-07T14:20:10;4.60;;;2.62;;
26516;SDS011;14190;51.342;6.338;2023-05-07T14:22:37;5.22;;;2.72;;
26516;SDS011;14190;51.342;6.338;2023-05-07T14:25:05;3.83;;;2.20;;
26516;SDS011;14190;51.342;6.338;2023-05-07T14:27:32;3.60;;;2.30;;
26516;SDS011;14190;51.342;6.338;2023-05-07T14:30:00;4.05;;;2.42;;
26516;SDS011;14190;51.342;6.338;2023-05-07T14:32:27;6.08;;;3.17;;
26516;SDS011;14190;51.342;6.338;2023-05-07T14:34:55;5.97;;;2.42;;
26516;SDS011;14190;51.342;6.338;2023-05-07T14:37:22;6.28;;;2.83;;
26516;SDS011;14190;51.342;6.338;2023-05-07T14:39:50;5.70;;;2.27;;
26516;SDS011;14190;51.342;6.338;2023-05-07T14:42:17;3.62;;;2.33;;
26516;SDS011;14190;51.342;6.338;2023-05-07T14:44:45;6.72;;;2.25;;
26516;SDS011;14190;51.342;6.338;2023-05-07T14:47:12;4.40;;;2.33;;
26516;SDS011;14190;51.342;6.338;2023-05-07T14:49:40;3.95;;;2.17;;
26516;SDS011;14190;51.342;6.338;2023-05-07T14:52:08;4.95;;;2.58;;
26516;SDS011;14190;51.342;6.338;2023-05-07T14:54:36;8.60;;;3.15;;
26516;SDS011;14190;51.342;6.338;2023-05-07T14:57:04;9.55;;;2.45;;
26516;SDS011;14190;51.342;6.338;2023-05-07T14:59:32;4.15;;;2.47;;
26516;SDS011;14190;51.342;6.338;2023-05-07T15:01:59;16.27;;;3.05;;
26516;SDS011;14190;51.342;6.338;2023-05-07T15:04:26;3.95;;;2.42;;